sensor_id;sensor_type;location;lat;lon;timestamp;pressure;altitude;pressure_sealevel;temperature;humidity
37132;BME280;23035;50.032;21.978;2022-12-07T00:04:34;65450.41;;;2.71;100.00
37132;BME280;23035;50.032;21.978;2022-12-07T00:09:38;65490.28;;;3.06;100.00
37132;BME280;23035;50.032;21.978;2022-12-07T00:14:46;65517.06;;;3.34;100.00
37132;BME280;23035;50.032;21.978;2022-12-07T00:19:50;65548.94;;;3.62;100.00
37132;BME280;23035;50.032;21.978;2022-12-07T00:24:55;65553.22;;;3.66;100.00
37132;BME280;23035;50.032;21.978;2022-12-07T00:30:00;65473.13;;;2.87;100.00
37132;BME280;23035;50.032;21.978;2022-12-07T00:35:06;65456.28;;;2.76;100.00
37132;BME280;23035;50.032;21.978;2022-12-07T00:40:11;65486.56;;;3.03;100.00
37132;BME280;23035;50.032;21.978;2022-12-07T00:45:17;65500.44;;;3.16;100.00
37132;BME280;23035;50.032;21.978;2022-12-07T00:50:21;65543.16;;;3.59;100.00
37132;BME280;23035;50.032;21.978;2022-12-07T00:55:25;65554.38;;;3.70;100.00
37132;BME280;23035;50.032;21.978;2022-12-07T01:00:31;65613.91;;;4.22;100.00
37132;BME280;23035;50.032;21.978;2022-12-07T01:05:36;65621.59;;;4.34;100.00
37132;BME280;23035;50.032;21.978;2022-12-07T01:10:40;65588.50;;;4.02;100.00
37132;BME280;23035;50.032;21.978;2022-12-07T01:15:45;65544.66;;;3.58;100.00
37132;BME280;23035;50.032;21.978;2022-12-07T01:20:57;65588.41;;;4.00;100.00
37132;BME280;23035;50.032;21.978;2022-12-07T01:26:03;65583.69;;;3.98;100.00
37132;BME280;23035;50.032;21.978;2022-12-07T01:31:12;65561.22;;;3.74;100.00
37132;BME280;23035;50.032;21.978;2022-12-07T01:36:19;65570.06;;;3.78;100.00
37132;BME280;23035;50.032;21.978;2022-12-07T01:41:25;65503.09;;;3.19;100.00
37132;BME280;23035;50.032;21.978;2022-12-07T01:46:31;65631.53;;;4.39;100.00
37132;BME280;23035;50.032;21.978;2022-12-07T01:51:37;65591.72;;;4.06;100.00
37132;BME280;23035;50.032;21.978;2022-12-07T01:56:47;65532.84;;;3.44;100.00
37132;BME280;23035;50.032;21.978;2022-12-07T02:01:55;65594.28;;;4.06;100.00
37132;BME280;23035;50.032;21.978;2022-12-07T02:07:00;65613.38;;;4.21;100.00
37132;BME280;23035;50.032;21.978;2022-12-07T02:12:04;65582.00;;;3.94;100.00
37132;BME280;23035;50.032;21.978;2022-12-07T02:17:16;65601.00;;;4.07;100.00
37132;BME280;23035;50.032;21.978;2022-12-07T02:28:05;65532.94;;;3.47;100.00
37132;BME280;23035;50.032;21.978;2022-12-07T02:33:16;65582.44;;;3.92;100.00
37132;BME280;23035;50.032;21.978;2022-12-07T02:38:27;65596.50;;;4.10;100.00
37132;BME280;23035;50.032;21.978;2022-12-07T02:43:39;65550.00;;;3.63;100.00
37132;BME280;23035;50.032;21.978;2022-12-07T02:48:47;65451.91;;;2.70;100.00
37132;BME280;23035;50.032;21.978;2022-12-07T02:53:53;65468.44;;;2.85;100.00
37132;BME280;23035;50.032;21.978;2022-12-07T02:59:06;65512.06;;;3.25;100.00
37132;BME280;23035;50.032;21.978;2022-12-07T03:04:32;65438.06;;;2.56;100.00
37132;BME280;23035;50.032;21.978;2022-12-07T03:09:43;65500.00;;;3.18;100.00
37132;BME280;23035;50.032;21.978;2022-12-07T03:14:54;65599.06;;;4.10;100.00
37132;BME280;23035;50.032;21.978;2022-12-07T03:20:04;65578.25;;;3.90;100.00
37132;BME280;23035;50.032;21.978;2022-12-07T03:25:13;65581.47;;;3.93;100.00
37132;BME280;23035;50.032;21.978;2022-12-07T03:30:21;65562.69;;;3.73;100.00
37132;BME280;23035;50.032;21.978;2022-12-07T03:35:31;65601.19;;;4.12;100.00
37132;BME280;23035;50.032;21.978;2022-12-07T03:40:40;65608.03;;;4.16;100.00
37132;BME280;23035;50.032;21.978;2022-12-07T03:45:58;65567.69;;;3.83;100.00
37132;BME280;23035;50.032;21.978;2022-12-07T03:51:16;65588.75;;;3.95;100.00
37132;BME280;23035;50.032;21.978;2022-12-07T03:56:24;65582.88;;;3.90;100.00
37132;BME280;23035;50.032;21.978;2022-12-07T04:01:29;65617.66;;;4.25;100.00
37132;BME280;23035;50.032;21.978;2022-12-07T04:06:36;65566.00;;;3.79;100.00
37132;BME280;23035;50.032;21.978;2022-12-07T04:11:41;65701.44;;;5.05;100.00
37132;BME280;23035;50.032;21.978;2022-12-07T04:16:45;65748.00;;;5.52;100.00
37132;BME280;23035;50.032;21.978;2022-12-07T04:21:50;65769.47;;;5.75;100.00
37132;BME280;23035;50.032;21.978;2022-12-07T04:26:54;65758.88;;;5.67;100.00
37132;BME280;23035;50.032;21.978;2022-12-07T04:31:58;65773.09;;;5.76;100.00
37132;BME280;23035;50.032;21.978;2022-12-07T04:37:04;65601.19;;;4.12;100.00
37132;BME280;23035;50.032;21.978;2022-12-07T04:42:09;65629.03;;;4.41;100.00
37132;BME280;23035;50.032;21.978;2022-12-07T04:47:13;65628.31;;;4.36;100.00
37132;BME280;23035;50.032;21.978;2022-12-07T04:52:19;65574.63;;;3.89;100.00
37132;BME280;23035;50.032;21.978;2022-12-07T04:57:23;65568.03;;;3.78;100.00
37132;BME280;23035;50.032;21.978;2022-12-07T05:02:27;65592.16;;;4.03;100.00
37132;BME280;23035;50.032;21.978;2022-12-07T05:07:33;65523.34;;;3.38;100.00
37132;BME280;23035;50.032;21.978;2022-12-07T05:12:37;65629.38;;;4.37;100.00
37132;BME280;23035;50.032;21.978;2022-12-07T05:17:42;65683.63;;;4.83;100.00
37132;BME280;23035;50.032;21.978;2022-12-07T05:22:47;65662.03;;;4.70;100.00
37132;BME280;23035;50.032;21.978;2022-12-07T05:27:51;65697.72;;;5.02;100.00
37132;BME280;23035;50.032;21.978;2022-12-07T05:32:56;65619.00;;;4.34;100.00
37132;BME280;23035;50.032;21.978;2022-12-07T05:38:02;65637.72;;;4.40;100.00
37132;BME280;23035;50.032;21.978;2022-12-07T05:43:07;65640.44;;;4.57;100.00
37132;BME280;23035;50.032;21.978;2022-12-07T05:48:13;65624.56;;;4.32;100.00
37132;BME280;23035;50.032;21.978;2022-12-07T05:53:19;65543.50;;;3.55;100.00
37132;BME280;23035;50.032;21.978;2022-12-07T05:58:29;65644.53;;;4.56;100.00
37132;BME280;23035;50.032;21.978;2022-12-07T06:03:54;65627.97;;;4.40;100.00
37132;BME280;23035;50.032;21.978;2022-12-07T06:09:00;65566.00;;;3.79;100.00
37132;BME280;23035;50.032;21.978;2022-12-07T06:14:04;65505.31;;;3.23;100.00
37132;BME280;23035;50.032;21.978;2022-12-07T06:19:09;65508.94;;;3.24;100.00
37132;BME280;23035;50.032;21.978;2022-12-07T06:24:16;65534.44;;;3.46;100.00
37132;BME280;23035;50.032;21.978;2022-12-07T06:29:21;65465.34;;;2.85;100.00
37132;BME280;23035;50.032;21.978;2022-12-07T06:34:26;65449.06;;;2.62;100.00
37132;BME280;23035;50.032;21.978;2022-12-07T06:39:35;65559.84;;;3.65;100.00
37132;BME280;23035;50.032;21.978;2022-12-07T06:44:39;65543.69;;;3.60;100.00
37132;BME280;23035;50.032;21.978;2022-12-07T06:49:43;65590.44;;;3.99;100.00
37132;BME280;23035;50.032;21.978;2022-12-07T06:54:50;65593.84;;;4.08;100.00
37132;BME280;23035;50.032;21.978;2022-12-07T06:59:56;65563.34;;;3.76;100.00
37132;BME280;23035;50.032;21.978;2022-12-07T07:05:01;65489.66;;;3.03;100.00
37132;BME280;23035;50.032;21.978;2022-12-07T07:10:07;65514.72;;;3.27;100.00
37132;BME280;23035;50.032;21.978;2022-12-07T07:15:11;65479.63;;;2.96;100.00
37132;BME280;23035;50.032;21.978;2022-12-07T07:20:16;65510.66;;;3.28;100.00
37132;BME280;23035;50.032;21.978;2022-12-07T07:25:21;65476.88;;;2.91;100.00
37132;BME280;23035;50.032;21.978;2022-12-07T07:30:25;65555.25;;;3.66;100.00
37132;BME280;23035;50.032;21.978;2022-12-07T07:35:34;65539.22;;;3.51;100.00
37132;BME280;23035;50.032;21.978;2022-12-07T07:40:40;65518.75;;;3.38;100.00
37132;BME280;23035;50.032;21.978;2022-12-07T07:45:44;65572.81;;;3.83;100.00
37132;BME280;23035;50.032;21.978;2022-12-07T07:50:49;65563.44;;;3.79;100.00
37132;BME280;23035;50.032;21.978;2022-12-07T07:55:54;65572.41;;;3.85;100.00
37132;BME280;23035;50.032;21.978;2022-12-07T08:01:03;65552.13;;;3.65;100.00
37132;BME280;23035;50.032;21.978;2022-12-07T08:06:08;65567.50;;;3.78;100.00
37132;BME280;23035;50.032;21.978;2022-12-07T08:11:13;65506.38;;;3.24;100.00
37132;BME280;23035;50.032;21.978;2022-12-07T08:16:18;65508.41;;;3.24;100.00
37132;BME280;23035;50.032;21.978;2022-12-07T08:21:22;65456.19;;;2.74;100.00
37132;BME280;23035;50.032;21.978;2022-12-07T08:26:27;65532.84;;;3.44;100.00
37132;BME280;23035;50.032;21.978;2022-12-07T08:31:31;65541.38;;;3.53;100.00
37132;BME280;23035;50.032;21.978;2022-12-07T08:36:36;65506.91;;;3.25;100.00
37132;BME280;23035;50.032;21.978;2022-12-07T08:41:42;65483.91;;;3.00;100.00
37132;BME280;23035;50.032;21.978;2022-12-07T08:46:49;65519.81;;;3.39;100.00
37132;BME280;23035;50.032;21.978;2022-12-07T08:51:55;65462.56;;;2.80;100.00
37132;BME280;23035;50.032;21.978;2022-12-07T08:57:01;65529.53;;;3.39;100.00
37132;BME280;23035;50.032;21.978;2022-12-07T09:02:06;65548.41;;;3.62;100.00
37132;BME280;23035;50.032;21.978;2022-12-07T09:07:11;65465.66;;;2.80;100.00
37132;BME280;23035;50.032;21.978;2022-12-07T09:12:17;65533.03;;;3.50;100.00
37132;BME280;23035;50.032;21.978;2022-12-07T09:17:21;65504.06;;;3.17;100.00
37132;BME280;23035;50.032;21.978;2022-12-07T09:22:28;65560.56;;;3.71;100.00
37132;BME280;23035;50.032;21.978;2022-12-07T09:27:33;65518.44;;;3.31;100.00
37132;BME280;23035;50.032;21.978;2022-12-07T09:32:38;65493.50;;;3.09;100.00
37132;BME280;23035;50.032;21.978;2022-12-07T09:37:42;65587.97;;;4.02;100.00
37132;BME280;23035;50.032;21.978;2022-12-07T09:42:51;65600.66;;;4.12;100.00
37132;BME280;23035;50.032;21.978;2022-12-07T09:47:57;65632.16;;;4.42;100.00
37132;BME280;23035;50.032;21.978;2022-12-07T09:53:08;65541.38;;;3.53;100.00
37132;BME280;23035;50.032;21.978;2022-12-07T09:58:19;65537.72;;;3.52;100.00
37132;BME280;23035;50.032;21.978;2022-12-07T10:03:27;65468.88;;;2.83;100.00
37132;BME280;23035;50.032;21.978;2022-12-07T10:08:33;65536.13;;;3.50;100.00
37132;BME280;23035;50.032;21.978;2022-12-07T10:13:40;65543.59;;;3.57;100.00
37132;BME280;23035;50.032;21.978;2022-12-07T10:18:47;65510.56;;;3.26;100.00
37132;BME280;23035;50.032;21.978;2022-12-07T10:24:04;65466.84;;;2.84;100.00
37132;BME280;23035;50.032;21.978;2022-12-07T10:29:18;65513.50;;;3.36;100.00
37132;BME280;23035;50.032;21.978;2022-12-07T10:34:26;65515.34;;;3.30;100.00
37132;BME280;23035;50.032;21.978;2022-12-07T10:39:40;65526.97;;;3.39;100.00
37132;BME280;23035;50.032;21.978;2022-12-07T10:44:48;65550.09;;;3.66;100.00
37132;BME280;23035;50.032;21.978;2022-12-07T10:52:16;65590.09;;;4.04;100.00
37132;BME280;23035;50.032;21.978;2022-12-07T10:57:32;65580.94;;;3.93;100.00
37132;BME280;23035;50.032;21.978;2022-12-07T11:02:54;65563.44;;;3.79;100.00
37132;BME280;23035;50.032;21.978;2022-12-07T11:08:18;65580.50;;;3.95;100.00
37132;BME280;23035;50.032;21.978;2022-12-07T11:13:28;65515.34;;;3.30;100.00
37132;BME280;23035;50.032;21.978;2022-12-07T11:18:43;65494.03;;;3.10;100.00
37132;BME280;23035;50.032;21.978;2022-12-07T11:23:59;65626.38;;;4.39;100.00
37132;BME280;23035;50.032;21.978;2022-12-07T11:29:17;65642.94;;;4.54;100.00
37132;BME280;23035;50.032;21.978;2022-12-07T11:34:32;65532.50;;;3.49;100.00
37132;BME280;23035;50.032;21.978;2022-12-07T11:39:44;65599.06;;;4.10;100.00
37132;BME280;23035;50.032;21.978;2022-12-07T11:44:55;65524.41;;;3.39;100.00
37132;BME280;23035;50.032;21.978;2022-12-07T11:50:16;65539.44;;;3.56;100.00
37132;BME280;23035;50.032;21.978;2022-12-07T11:55:39;65517.38;;;3.30;100.00
37132;BME280;23035;50.032;21.978;2022-12-07T12:00:45;65501.38;;;3.14;100.00
37132;BME280;23035;50.032;21.978;2022-12-07T12:05:49;65429.53;;;2.48;100.00
37132;BME280;23035;50.032;21.978;2022-12-07T12:11:00;65490.94;;;3.09;100.00
37132;BME280;23035;50.032;21.978;2022-12-07T12:16:19;65491.25;;;3.05;100.00
37132;BME280;23035;50.032;21.978;2022-12-07T12:21:28;65521.09;;;3.33;100.00
37132;BME280;23035;50.032;21.978;2022-12-07T12:26:36;65499.47;;;3.17;100.00
37132;BME280;23035;50.032;21.978;2022-12-07T12:31:41;65479.63;;;2.96;100.00
37132;BME280;23035;50.032;21.978;2022-12-07T12:36:47;65456.63;;;2.72;100.00
37132;BME280;23035;50.032;21.978;2022-12-07T12:41:57;65489.03;;;3.00;100.00
37132;BME280;23035;50.032;21.978;2022-12-07T12:47:40;65512.78;;;3.30;100.00
37132;BME280;23035;50.032;21.978;2022-12-07T12:58:39;65541.66;;;3.60;100.00
37132;BME280;23035;50.032;21.978;2022-12-07T13:03:52;65488.69;;;3.05;100.00
37132;BME280;23035;50.032;21.978;2022-12-07T13:08:58;65511.72;;;3.29;100.00
37132;BME280;23035;50.032;21.978;2022-12-07T13:20:03;65471.72;;;2.91;100.00
37132;BME280;23035;50.032;21.978;2022-12-07T13:25:23;65436.03;;;2.57;100.00
37132;BME280;23035;50.032;21.978;2022-12-07T13:30:31;65422.19;;;2.44;100.00
37132;BME280;23035;50.032;21.978;2022-12-07T13:35:38;65501.59;;;3.20;100.00
37132;BME280;23035;50.032;21.978;2022-12-07T13:40:42;65456.81;;;2.77;100.00
37132;BME280;23035;50.032;21.978;2022-12-07T13:45:55;65537.19;;;3.51;100.00
37132;BME280;23035;50.032;21.978;2022-12-07T13:51:03;65540.84;;;3.52;100.00
37132;BME280;23035;50.032;21.978;2022-12-07T13:56:14;65586.56;;;4.06;100.00
37132;BME280;23035;50.032;21.978;2022-12-07T14:01:18;65567.28;;;3.85;100.00
37132;BME280;23035;50.032;21.978;2022-12-07T14:06:26;65649.22;;;4.58;100.00
37132;BME280;23035;50.032;21.978;2022-12-07T14:11:31;65618.72;;;4.26;100.00
37132;BME280;23035;50.032;21.978;2022-12-07T14:16:36;65704.31;;;5.13;100.00
37132;BME280;23035;50.032;21.978;2022-12-07T14:21:42;65676.53;;;4.86;100.00
37132;BME280;23035;50.032;21.978;2022-12-07T14:26:48;65586.91;;;4.01;100.00
37132;BME280;23035;50.032;21.978;2022-12-07T14:31:53;65696.75;;;5.03;100.00
37132;BME280;23035;50.032;21.978;2022-12-07T14:36:59;65595.44;;;4.09;100.00
37132;BME280;23035;50.032;21.978;2022-12-07T14:42:03;65622.13;;;4.35;100.00
37132;BME280;23035;50.032;21.978;2022-12-07T14:47:09;65639.00;;;4.46;100.00
37132;BME280;23035;50.032;21.978;2022-12-07T14:52:34;65742.66;;;5.47;100.00
37132;BME280;23035;50.032;21.978;2022-12-07T14:57:59;65771.50;;;5.74;100.00
37132;BME280;23035;50.032;21.978;2022-12-07T15:03:03;65812.56;;;6.11;100.00
37132;BME280;23035;50.032;21.978;2022-12-07T15:08:10;65779.53;;;5.82;100.00
37132;BME280;23035;50.032;21.978;2022-12-07T15:13:15;65739.00;;;5.46;100.00
37132;BME280;23035;50.032;21.978;2022-12-07T15:18:37;65755.38;;;5.57;100.00
37132;BME280;23035;50.032;21.978;2022-12-07T15:23:51;65704.84;;;5.13;100.00
37132;BME280;23035;50.032;21.978;2022-12-07T15:28:55;65743.72;;;5.48;100.00
37132;BME280;23035;50.032;21.978;2022-12-07T15:33:59;65760.38;;;5.66;100.00
37132;BME280;23035;50.032;21.978;2022-12-07T15:39:05;65727.34;;;5.37;100.00
37132;BME280;23035;50.032;21.978;2022-12-07T15:44:17;65725.03;;;5.30;100.00
37132;BME280;23035;50.032;21.978;2022-12-07T15:49:38;65720.84;;;5.29;100.00
37132;BME280;23035;50.032;21.978;2022-12-07T15:54:44;65706.53;;;5.17;100.00
37132;BME280;23035;50.032;21.978;2022-12-07T15:59:48;65692.03;;;5.01;100.00
37132;BME280;23035;50.032;21.978;2022-12-07T16:04:52;65777.81;;;5.78;100.00
37132;BME280;23035;50.032;21.978;2022-12-07T16:09:58;65672.28;;;4.82;100.00
37132;BME280;23035;50.032;21.978;2022-12-07T16:15:02;65693.00;;;5.00;100.00
37132;BME280;23035;50.032;21.978;2022-12-07T16:20:07;65680.72;;;4.88;100.00
37132;BME280;23035;50.032;21.978;2022-12-07T16:25:13;65747.47;;;5.52;100.00
37132;BME280;23035;50.032;21.978;2022-12-07T16:30:17;65659.91;;;4.68;100.00
37132;BME280;23035;50.032;21.978;2022-12-07T16:35:21;65730.13;;;5.42;100.00
37132;BME280;23035;50.032;21.978;2022-12-07T16:40:27;65697.28;;;5.04;100.00
37132;BME280;23035;50.032;21.978;2022-12-07T16:45:31;65648.94;;;4.50;100.00
37132;BME280;23035;50.032;21.978;2022-12-07T16:50:38;65676.63;;;4.89;100.00
37132;BME280;23035;50.032;21.978;2022-12-07T16:55:51;65617.22;;;4.27;100.00
37132;BME280;23035;50.032;21.978;2022-12-07T17:00:55;65691.31;;;4.96;100.00
37132;BME280;23035;50.032;21.978;2022-12-07T17:05:59;65699.50;;;5.08;100.00
37132;BME280;23035;50.032;21.978;2022-12-07T17:11:09;65623.63;;;4.34;100.00
37132;BME280;23035;50.032;21.978;2022-12-07T17:16:14;65722.44;;;5.30;100.00
37132;BME280;23035;50.032;21.978;2022-12-07T17:21:18;65688.28;;;4.98;100.00
37132;BME280;23035;50.032;21.978;2022-12-07T17:26:26;65719.25;;;5.27;100.00
37132;BME280;23035;50.032;21.978;2022-12-07T17:31:37;65596.31;;;4.05;100.00
37132;BME280;23035;50.032;21.978;2022-12-07T17:36:41;65607.06;;;4.18;100.00
37132;BME280;23035;50.032;21.978;2022-12-07T17:41:49;65662.56;;;4.71;100.00
37132;BME280;23035;50.032;21.978;2022-12-07T17:47:11;65613.91;;;4.22;100.00
37132;BME280;23035;50.032;21.978;2022-12-07T17:52:17;65620.41;;;4.30;100.00
37132;BME280;23035;50.032;21.978;2022-12-07T17:57:40;65616.69;;;4.27;100.00
37132;BME280;23035;50.032;21.978;2022-12-07T18:02:44;65505.22;;;3.21;100.00
37132;BME280;23035;50.032;21.978;2022-12-07T18:07:50;65619.97;;;4.32;100.00
37132;BME280;23035;50.032;21.978;2022-12-07T18:12:56;65507.34;;;3.23;100.00
37132;BME280;23035;50.032;21.978;2022-12-07T18:18:14;65489.84;;;3.08;100.00
37132;BME280;23035;50.032;21.978;2022-12-07T18:23:18;65581.22;;;4.00;100.00
37132;BME280;23035;50.032;21.978;2022-12-07T18:28:24;65550.63;;;3.66;100.00
37132;BME280;23035;50.032;21.978;2022-12-07T18:33:29;65539.31;;;3.53;100.00
37132;BME280;23035;50.032;21.978;2022-12-07T18:38:33;65603.53;;;4.19;100.00
37132;BME280;23035;50.032;21.978;2022-12-07T18:43:38;65553.66;;;3.64;100.00
37132;BME280;23035;50.032;21.978;2022-12-07T18:48:43;65591.19;;;4.05;100.00
37132;BME280;23035;50.032;21.978;2022-12-07T18:53:48;65602.81;;;4.14;100.00
37132;BME280;23035;50.032;21.978;2022-12-07T18:58:56;65576.13;;;3.88;100.00
37132;BME280;23035;50.032;21.978;2022-12-07T19:04:18;65592.25;;;4.06;100.00
37132;BME280;23035;50.032;21.978;2022-12-07T19:09:22;65585.91;;;4.02;100.00
37132;BME280;23035;50.032;21.978;2022-12-07T19:14:29;65573.03;;;3.88;100.00
37132;BME280;23035;50.032;21.978;2022-12-07T19:19:35;65558.09;;;3.73;100.00
37132;BME280;23035;50.032;21.978;2022-12-07T19:24:40;65527.59;;;3.42;100.00
37132;BME280;23035;50.032;21.978;2022-12-07T19:29:47;65492.53;;;3.11;100.00
37132;BME280;23035;50.032;21.978;2022-12-07T19:34:51;65447.94;;;2.73;100.00
37132;BME280;23035;50.032;21.978;2022-12-07T19:39:57;65514.50;;;3.34;100.00
37132;BME280;23035;50.032;21.978;2022-12-07T19:45:03;65544.66;;;3.58;100.00
37132;BME280;23035;50.032;21.978;2022-12-07T19:50:08;65456.28;;;2.76;100.00
37132;BME280;23035;50.032;21.978;2022-12-07T19:55:12;65534.09;;;3.51;100.00
37132;BME280;23035;50.032;21.978;2022-12-07T20:00:19;65504.78;;;3.23;100.00
37132;BME280;23035;50.032;21.978;2022-12-07T20:05:23;65522.38;;;3.39;100.00
37132;BME280;23035;50.032;21.978;2022-12-07T20:10:27;65521.75;;;3.36;100.00
37132;BME280;23035;50.032;21.978;2022-12-07T20:15:36;65515.97;;;3.33;100.00
37132;BME280;23035;50.032;21.978;2022-12-07T20:20:40;65505.66;;;3.19;100.00
37132;BME280;23035;50.032;21.978;2022-12-07T20:25:44;65480.16;;;2.97;100.00
37132;BME280;23035;50.032;21.978;2022-12-07T20:30:51;65554.91;;;3.70;100.00
37132;BME280;23035;50.032;21.978;2022-12-07T20:35:58;65421.66;;;2.43;100.00
37132;BME280;23035;50.032;21.978;2022-12-07T20:41:05;65517.59;;;3.35;100.00
37132;BME280;23035;50.032;21.978;2022-12-07T20:46:12;65474.72;;;2.89;100.00
37132;BME280;23035;50.032;21.978;2022-12-07T20:51:16;65481.13;;;2.95;100.00
37132;BME280;23035;50.032;21.978;2022-12-07T20:56:22;65496.25;;;3.14;100.00
37132;BME280;23035;50.032;21.978;2022-12-07T21:01:28;65527.72;;;3.44;100.00
37132;BME280;23035;50.032;21.978;2022-12-07T21:06:32;65557.47;;;3.70;100.00
37132;BME280;23035;50.032;21.978;2022-12-07T21:11:36;65517.59;;;3.35;100.00
37132;BME280;23035;50.032;21.978;2022-12-07T21:16:42;65448.53;;;2.62;100.00
37132;BME280;23035;50.032;21.978;2022-12-07T21:21:46;65537.19;;;3.51;100.00
37132;BME280;23035;50.032;21.978;2022-12-07T21:26:50;65514.28;;;3.29;100.00
37132;BME280;23035;50.032;21.978;2022-12-07T21:31:55;65456.06;;;2.71;100.00
37132;BME280;23035;50.032;21.978;2022-12-07T21:36:59;65510.56;;;3.26;100.00
37132;BME280;23035;50.032;21.978;2022-12-07T21:42:03;65534.00;;;3.48;100.00
37132;BME280;23035;50.032;21.978;2022-12-07T21:47:09;65547.44;;;3.63;100.00
37132;BME280;23035;50.032;21.978;2022-12-07T21:52:13;65581.47;;;3.93;100.00
37132;BME280;23035;50.032;21.978;2022-12-07T21:57:17;65405.25;;;2.30;100.00
37132;BME280;23035;50.032;21.978;2022-12-07T22:02:22;65487.09;;;3.03;100.00
37132;BME280;23035;50.032;21.978;2022-12-07T22:07:26;65510.66;;;3.28;100.00
37132;BME280;23035;50.032;21.978;2022-12-07T22:12:31;65409.22;;;2.26;100.00
37132;BME280;23035;50.032;21.978;2022-12-07T22:17:36;65460.97;;;2.78;100.00
37132;BME280;23035;50.032;21.978;2022-12-07T22:22:40;65510.56;;;3.26;100.00
37132;BME280;23035;50.032;21.978;2022-12-07T22:27:44;65495.63;;;3.11;100.00
37132;BME280;23035;50.032;21.978;2022-12-07T22:32:49;65547.88;;;3.61;100.00
37132;BME280;23035;50.032;21.978;2022-12-07T22:37:53;65451.50;;;2.72;100.00
37132;BME280;23035;50.032;21.978;2022-12-07T22:42:57;65514.19;;;3.27;100.00
37132;BME280;23035;50.032;21.978;2022-12-07T22:48:05;65454.16;;;2.74;100.00
37132;BME280;23035;50.032;21.978;2022-12-07T22:53:09;65476.97;;;2.94;100.00
37132;BME280;23035;50.032;21.978;2022-12-07T22:58:13;65501.38;;;3.14;100.00
37132;BME280;23035;50.032;21.978;2022-12-07T23:03:28;65472.59;;;2.87;100.00
37132;BME280;23035;50.032;21.978;2022-12-07T23:08:32;65508.19;;;3.31;100.00
37132;BME280;23035;50.032;21.978;2022-12-07T23:13:36;65514.19;;;3.27;100.00
37132;BME280;23035;50.032;21.978;2022-12-07T23:18:41;65501.38;;;3.14;100.00
37132;BME280;23035;50.032;21.978;2022-12-07T23:23:46;65558.97;;;3.69;100.00
37132;BME280;23035;50.032;21.978;2022-12-07T23:28:50;65617.66;;;4.25;100.00
37132;BME280;23035;50.032;21.978;2022-12-07T23:33:55;65604.31;;;4.13;100.00
37132;BME280;23035;50.032;21.978;2022-12-07T23:38:59;65576.03;;;3.86;100.00
37132;BME280;23035;50.032;21.978;2022-12-07T23:44:03;65569.84;;;3.85;100.00
37132;BME280;23035;50.032;21.978;2022-12-07T23:49:10;65594.28;;;4.06;100.00
37132;BME280;23035;50.032;21.978;2022-12-07T23:54:14;65462.13;;;2.82;100.00
37132;BME280;23035;50.032;21.978;2022-12-07T23:59:18;65630.38;;;4.35;100.00
